createdAt,value
2022-11-17T00:00:27.719Z,19.83
2022-11-17T00:02:54.569Z,18.58
2022-11-17T00:05:21.426Z,18.02
2022-11-17T00:07:49.911Z,19.05
2022-11-17T00:10:17.615Z,18.45
2022-11-17T00:13:02.959Z,18.67
2022-11-17T00:15:30.482Z,17.15
2022-11-17T00:18:15.717Z,18.70
2022-11-17T00:21:01.114Z,17.38
2022-11-17T00:23:47.456Z,17.17
2022-11-17T00:26:26.470Z,15.68
2022-11-17T00:28:55.063Z,15.75
2022-11-17T00:31:40.984Z,16.73
2022-11-17T00:34:08.577Z,16.38
2022-11-17T00:36:44.231Z,16.50
2022-11-17T00:39:12.583Z,15.38
2022-11-17T00:41:39.588Z,15.48
2022-11-17T00:44:07.027Z,14.98
2022-11-17T00:46:34.833Z,14.32
2022-11-17T00:49:03.457Z,15.07
2022-11-17T00:51:30.243Z,13.95
2022-11-17T00:53:57.043Z,15.45
2022-11-17T00:56:25.594Z,14.63
2022-11-17T00:58:52.826Z,13.95
2022-11-17T01:01:20.421Z,14.20
2022-11-17T01:03:48.016Z,13.57
2022-11-17T01:06:17.509Z,13.65
2022-11-17T01:08:44.939Z,13.15
2022-11-17T01:11:18.206Z,14.23
2022-11-17T01:16:17.925Z,13.82
2022-11-17T01:18:46.713Z,13.47
2022-11-17T01:21:21.108Z,12.88
2022-11-17T01:23:49.482Z,13.27
2022-11-17T01:26:22.190Z,12.27
2022-11-17T01:28:49.894Z,13.38
2022-11-17T01:31:22.358Z,13.20
2022-11-17T01:33:49.673Z,12.48
2022-11-17T01:36:19.317Z,12.75
2022-11-17T01:38:46.539Z,12.27
2022-11-17T01:41:27.995Z,12.52
2022-11-17T01:43:59.370Z,13.27
2022-11-17T01:46:35.202Z,11.90
2022-11-17T01:49:13.114Z,12.48
2022-11-17T01:51:45.622Z,12.20
2022-11-17T01:54:15.751Z,13.07
2022-11-17T01:56:45.390Z,12.52
2022-11-17T01:59:26.487Z,11.98
2022-11-17T02:01:58.069Z,11.48
2022-11-17T02:04:29.618Z,12.38
2022-11-17T02:07:20.058Z,12.88
2022-11-17T02:09:47.354Z,11.65
2022-11-17T02:12:16.307Z,12.73
2022-11-17T02:14:43.195Z,12.55
2022-11-17T02:17:14.186Z,12.25
2022-11-17T02:19:43.708Z,12.15
2022-11-17T02:22:10.518Z,12.57
2022-11-17T02:24:59.465Z,12.55
2022-11-17T02:27:50.480Z,12.00
2022-11-17T02:30:20.094Z,11.75
2022-11-17T02:33:04.921Z,12.60
2022-11-17T02:35:59.333Z,13.77
2022-11-17T02:38:37.066Z,13.02
2022-11-17T02:41:59.088Z,14.02
2022-11-17T02:44:31.293Z,15.52
2022-11-17T02:47:35.822Z,14.15
2022-11-17T02:50:09.599Z,14.38
2022-11-17T02:52:36.622Z,14.15
2022-11-17T02:55:09.377Z,14.73
2022-11-17T02:57:38.446Z,15.80
2022-11-17T03:00:12.190Z,15.10
2022-11-17T03:02:41.983Z,16.02
2022-11-17T03:05:27.667Z,14.85
2022-11-17T03:08:06.378Z,14.57
2022-11-17T03:10:53.839Z,14.75
2022-11-17T03:13:47.572Z,15.25
2022-11-17T03:22:05.159Z,15.50
2022-11-17T03:24:41.935Z,12.68
2022-11-17T03:27:31.964Z,14.52
2022-11-17T03:30:02.907Z,14.50
2022-11-17T03:32:34.493Z,15.45
2022-11-17T03:35:06.005Z,15.05
2022-11-17T03:37:37.049Z,14.05
2022-11-17T03:40:11.201Z,13.70
2022-11-17T03:42:42.088Z,14.15
2022-11-17T03:45:23.733Z,13.65
2022-11-17T03:48:03.001Z,13.68
2022-11-17T03:50:37.640Z,14.20
2022-11-17T03:53:06.102Z,14.52
2022-11-17T03:55:50.157Z,14.07
2022-11-17T03:58:21.617Z,13.48
2022-11-17T04:00:52.227Z,13.32
2022-11-17T04:03:22.477Z,13.25
2022-11-17T04:05:49.269Z,12.73
2022-11-17T04:08:16.823Z,14.05
2022-11-17T04:11:01.982Z,13.50
2022-11-17T04:13:47.168Z,14.20
2022-11-17T04:16:13.932Z,14.45
2022-11-17T04:18:40.668Z,13.93
2022-11-17T04:21:07.438Z,14.52
2022-11-17T04:23:34.468Z,12.90
2022-11-17T04:26:20.808Z,13.25
2022-11-17T04:28:50.083Z,12.60
2022-11-17T04:31:25.944Z,13.50
2022-11-17T04:33:57.904Z,13.55
2022-11-17T04:36:43.445Z,13.70
2022-11-17T04:39:12.008Z,12.68
2022-11-17T04:41:56.777Z,11.25
2022-11-17T04:44:28.656Z,11.27
2022-11-17T04:46:56.417Z,10.80
2022-11-17T04:49:25.074Z,11.73
2022-11-17T04:51:53.412Z,10.68
2022-11-17T04:54:24.548Z,12.00
2022-11-17T04:56:52.741Z,12.07
2022-11-17T04:59:19.634Z,11.75
2022-11-17T05:01:46.563Z,11.65
2022-11-17T05:04:35.616Z,11.25
2022-11-17T05:07:02.571Z,11.20
2022-11-17T05:09:29.404Z,11.10
2022-11-17T05:12:14.677Z,11.35
2022-11-17T05:14:41.570Z,11.95
2022-11-17T05:17:11.187Z,10.13
2022-11-17T05:19:44.528Z,10.95
2022-11-17T05:22:32.041Z,11.48
2022-11-17T05:24:59.470Z,10.80
2022-11-17T05:27:26.749Z,11.00
2022-11-17T05:29:53.610Z,11.10
2022-11-17T05:32:20.560Z,10.70
2022-11-17T05:34:47.368Z,12.02
2022-11-17T05:37:14.238Z,10.65
2022-11-17T05:39:41.076Z,11.13
2022-11-17T05:42:07.854Z,10.73
2022-11-17T05:44:34.750Z,10.63
2022-11-17T05:47:01.828Z,10.75
2022-11-17T05:49:28.727Z,10.73
2022-11-17T05:51:55.555Z,10.15
2022-11-17T05:54:22.336Z,9.82
2022-11-17T05:56:58.092Z,10.27
2022-11-17T05:59:28.425Z,10.55
2022-11-17T06:02:12.768Z,8.80
2022-11-17T06:04:40.079Z,10.27
2022-11-17T06:07:07.198Z,9.52
2022-11-17T06:09:40.655Z,9.43
2022-11-17T06:12:07.705Z,10.25
2022-11-17T06:14:35.735Z,9.63
2022-11-17T06:17:09.893Z,10.02
2022-11-17T06:19:41.276Z,10.50
2022-11-17T06:22:13.376Z,9.60
2022-11-17T06:24:42.979Z,9.60
2022-11-17T06:27:11.854Z,9.32
2022-11-17T06:29:43.904Z,9.48
2022-11-17T06:32:17.014Z,9.38
2022-11-17T06:34:50.560Z,9.80
2022-11-17T06:37:22.123Z,8.77
2022-11-17T06:39:48.927Z,9.25
2022-11-17T06:42:15.780Z,8.98
2022-11-17T06:44:42.607Z,8.40
2022-11-17T06:47:09.454Z,8.98
2022-11-17T06:49:36.204Z,9.68
2022-11-17T06:52:02.986Z,8.75
2022-11-17T06:54:29.861Z,8.48
2022-11-17T06:56:57.168Z,8.35
2022-11-17T06:59:24.062Z,8.15
2022-11-17T07:01:50.934Z,8.13
2022-11-17T07:04:17.980Z,8.45
2022-11-17T07:06:44.793Z,7.75
2022-11-17T07:09:11.587Z,9.00
2022-11-17T07:11:38.406Z,8.15
2022-11-17T07:14:05.274Z,9.00
2022-11-17T07:16:32.711Z,8.32
2022-11-17T07:18:59.808Z,8.20
2022-11-17T07:21:26.717Z,8.25
2022-11-17T07:23:53.990Z,7.53
2022-11-17T07:26:20.834Z,7.75
2022-11-17T07:28:47.771Z,6.88
2022-11-17T07:31:14.705Z,7.00
2022-11-17T07:33:41.496Z,7.30
2022-11-17T07:36:11.095Z,7.85
2022-11-17T07:38:39.851Z,6.25
2022-11-17T07:41:08.861Z,7.35
2022-11-17T07:43:36.327Z,6.97
2022-11-17T07:46:07.972Z,7.75
2022-11-17T07:48:36.226Z,7.53
2022-11-17T07:51:03.860Z,7.55
2022-11-17T07:53:32.483Z,8.85
2022-11-17T07:56:04.520Z,8.77
2022-11-17T07:58:31.484Z,9.13
2022-11-17T08:00:58.496Z,8.52
2022-11-17T08:03:25.481Z,8.88
2022-11-17T08:05:53.430Z,9.13
2022-11-17T08:08:20.224Z,10.35
2022-11-17T08:10:47.092Z,9.10
2022-11-17T08:13:15.535Z,10.50
2022-11-17T08:15:42.422Z,9.38
2022-11-17T08:18:09.293Z,9.98
2022-11-17T08:20:36.264Z,9.27
2022-11-17T08:23:03.340Z,8.90
2022-11-17T08:25:30.153Z,9.60
2022-11-17T08:27:58.720Z,10.18
2022-11-17T08:30:26.511Z,10.27
2022-11-17T08:32:54.573Z,9.68
2022-11-17T08:35:24.503Z,10.18
2022-11-17T08:37:52.128Z,10.32
2022-11-17T08:40:19.442Z,9.20
2022-11-17T08:42:46.852Z,9.88
2022-11-17T08:45:14.096Z,10.18
2022-11-17T08:47:40.945Z,9.40
2022-11-17T08:50:08.711Z,10.23
2022-11-17T08:52:35.677Z,9.85
2022-11-17T08:55:02.755Z,9.98
2022-11-17T08:57:30.692Z,8.35
2022-11-17T08:59:58.001Z,8.73
2022-11-17T09:02:26.202Z,8.02
2022-11-17T09:04:53.167Z,8.55
2022-11-17T09:07:20.285Z,7.20
2022-11-17T09:09:48.542Z,7.95
2022-11-17T09:12:15.785Z,7.53
2022-11-17T09:14:42.752Z,6.95
2022-11-17T09:17:09.581Z,10.77
2022-11-17T09:19:37.184Z,7.07
2022-11-17T09:22:04.230Z,6.70
2022-11-17T09:24:31.029Z,6.40
2022-11-17T09:26:57.797Z,7.78
2022-11-17T09:29:24.805Z,6.65
2022-11-17T09:31:51.883Z,7.22
2022-11-17T09:34:18.807Z,6.95
2022-11-17T09:36:45.636Z,7.10
2022-11-17T09:39:12.524Z,6.68
2022-11-17T09:41:46.055Z,6.10
2022-11-17T09:47:19.256Z,6.57
2022-11-17T09:49:56.801Z,6.68
2022-11-17T09:52:29.491Z,6.88
2022-11-17T09:55:09.973Z,6.50
2022-11-17T09:57:48.281Z,6.32
2022-11-17T10:00:19.015Z,6.20
2022-11-17T10:02:46.669Z,6.30
2022-11-17T10:05:31.311Z,6.30
2022-11-17T10:08:03.620Z,6.13
2022-11-17T10:10:44.842Z,5.97
2022-11-17T10:13:22.321Z,5.57
2022-11-17T10:15:53.489Z,5.80
2022-11-17T10:18:20.424Z,5.65
2022-11-17T10:20:47.436Z,5.90
2022-11-17T10:23:19.528Z,6.78
2022-11-17T10:25:49.197Z,5.70
2022-11-17T10:28:31.093Z,5.75
2022-11-17T10:31:00.292Z,5.70
2022-11-17T10:33:39.681Z,5.43
2022-11-17T10:36:28.919Z,5.53
2022-11-17T10:38:58.206Z,5.22
2022-11-17T10:41:41.398Z,4.80
2022-11-17T10:44:19.768Z,5.10
2022-11-17T10:47:02.021Z,5.32
2022-11-17T10:49:39.745Z,5.28
2022-11-17T10:52:14.430Z,5.20
2022-11-17T10:54:41.790Z,5.07
2022-11-17T10:57:25.073Z,4.70
2022-11-17T10:59:59.646Z,5.72
2022-11-17T11:02:35.209Z,5.38
2022-11-17T11:05:10.368Z,5.03
2022-11-17T11:07:38.241Z,4.28
2022-11-17T11:10:18.654Z,5.22
2022-11-17T11:12:59.362Z,5.05
2022-11-17T11:15:36.111Z,4.57
2022-11-17T11:18:13.593Z,4.82
2022-11-17T11:21:12.700Z,4.97
2022-11-17T11:23:54.640Z,5.28
2022-11-17T11:26:52.509Z,5.10
2022-11-17T11:29:39.307Z,5.22
2022-11-17T11:32:16.586Z,4.95
2022-11-17T11:35:03.928Z,5.50
2022-11-17T11:37:41.729Z,5.55
2022-11-17T11:40:21.898Z,5.72
2022-11-17T11:43:08.952Z,5.75
2022-11-17T11:46:14.898Z,5.22
2022-11-17T11:48:42.009Z,5.80
2022-11-17T11:51:08.790Z,5.40
2022-11-17T11:53:58.745Z,5.75
2022-11-17T11:56:38.508Z,6.53
2022-11-17T11:59:19.412Z,6.10
2022-11-17T12:01:52.014Z,6.65
2022-11-17T12:04:31.064Z,6.80
2022-11-17T12:07:42.308Z,6.45
2022-11-17T12:10:15.209Z,6.85
2022-11-17T12:12:45.671Z,6.95
2022-11-17T12:15:18.500Z,6.78
2022-11-17T12:18:04.066Z,7.57
2022-11-17T12:20:35.861Z,6.95
2022-11-17T12:23:17.271Z,7.53
2022-11-17T12:25:53.904Z,7.65
2022-11-17T12:28:40.843Z,6.82
2022-11-17T12:31:39.609Z,6.78
2022-11-17T12:34:06.690Z,7.63
2022-11-17T12:36:35.055Z,7.30
2022-11-17T12:39:04.528Z,6.18
2022-11-17T12:41:49.825Z,8.02
2022-11-17T12:44:38.765Z,7.47
2022-11-17T12:47:17.660Z,9.40
2022-11-17T12:49:59.554Z,8.23
2022-11-17T12:52:45.486Z,7.35
2022-11-17T12:55:42.604Z,7.38
2022-11-17T12:58:12.581Z,8.95
2022-11-17T13:00:54.880Z,8.02
2022-11-17T13:03:33.774Z,7.60
2022-11-17T13:06:34.199Z,6.88
2022-11-17T13:09:01.908Z,7.60
2022-11-17T13:11:29.935Z,7.10
2022-11-17T13:14:17.119Z,6.82
2022-11-17T13:16:51.217Z,7.72
2022-11-17T13:19:38.935Z,7.28
2022-11-17T13:22:19.118Z,6.28
2022-11-17T13:24:50.565Z,6.93
2022-11-17T13:27:31.729Z,6.63
2022-11-17T13:30:23.582Z,6.65
2022-11-17T13:32:51.217Z,6.35
2022-11-17T13:35:26.351Z,7.28
2022-11-17T13:38:03.597Z,6.55
2022-11-17T13:40:31.483Z,7.07
2022-11-17T13:42:59.795Z,9.52
2022-11-17T13:45:26.937Z,7.88
2022-11-17T13:47:54.838Z,7.65
2022-11-17T13:50:27.747Z,7.72
2022-11-17T13:53:11.734Z,7.75
2022-11-17T13:55:45.217Z,8.15
2022-11-17T13:58:27.201Z,7.95
2022-11-17T14:00:57.442Z,7.55
2022-11-17T14:03:46.282Z,7.65
2022-11-17T14:06:14.583Z,7.82
2022-11-17T14:08:44.316Z,8.63
2022-11-17T14:11:11.055Z,8.57
2022-11-17T14:13:52.212Z,10.10
2022-11-17T14:16:41.560Z,8.65
2022-11-17T14:19:14.554Z,9.25
2022-11-17T14:22:00.642Z,8.90
2022-11-17T14:24:28.315Z,8.70
2022-11-17T14:26:55.250Z,7.82
2022-11-17T14:29:22.820Z,8.80
2022-11-17T14:31:49.908Z,8.95
2022-11-17T14:34:17.488Z,8.15
2022-11-17T14:36:44.561Z,8.25
2022-11-17T14:39:15.284Z,8.43
2022-11-17T14:41:43.824Z,8.23
2022-11-17T14:44:11.266Z,9.18
2022-11-17T14:46:38.158Z,9.43
2022-11-17T14:49:05.782Z,9.02
2022-11-17T14:51:32.656Z,9.18
2022-11-17T14:53:59.792Z,8.25
2022-11-17T14:56:26.632Z,8.43
2022-11-17T14:58:56.377Z,8.35
2022-11-17T15:01:28.612Z,7.90
2022-11-17T15:03:57.396Z,9.10
2022-11-17T15:06:25.193Z,8.32
2022-11-17T15:08:57.507Z,8.52
2022-11-17T15:11:25.311Z,9.30
2022-11-17T15:13:52.193Z,8.38
2022-11-17T15:16:19.185Z,8.05
2022-11-17T15:18:47.755Z,9.43
2022-11-17T15:21:16.096Z,7.43
2022-11-17T15:23:43.794Z,7.85
2022-11-17T15:26:16.893Z,7.18
2022-11-17T15:28:43.750Z,8.05
2022-11-17T15:31:15.920Z,7.80
2022-11-17T15:33:44.003Z,8.43
2022-11-17T15:36:13.158Z,8.02
2022-11-17T15:38:40.772Z,7.82
2022-11-17T15:41:09.973Z,7.72
2022-11-17T15:43:39.037Z,7.20
2022-11-17T15:46:13.992Z,7.35
2022-11-17T15:48:44.579Z,7.53
2022-11-17T15:51:20.270Z,7.90
2022-11-17T15:53:48.405Z,7.90
2022-11-17T15:56:21.932Z,7.88
2022-11-17T15:58:54.638Z,7.97
2022-11-17T16:01:24.997Z,8.13
2022-11-17T16:03:53.145Z,9.18
2022-11-17T16:06:19.940Z,8.48
2022-11-17T16:08:46.840Z,9.40
2022-11-17T16:11:14.000Z,8.27
2022-11-17T16:13:40.871Z,9.00
2022-11-17T16:16:08.232Z,8.73
2022-11-17T16:18:35.686Z,9.07
2022-11-17T16:21:07.857Z,9.65
2022-11-17T16:23:43.279Z,9.73
2022-11-17T16:26:11.470Z,8.30
2022-11-17T16:28:39.072Z,8.15
2022-11-17T16:31:20.581Z,8.63
2022-11-17T16:33:58.962Z,9.45
2022-11-17T16:36:35.951Z,8.50
2022-11-17T16:39:04.947Z,9.23
2022-11-17T16:41:34.656Z,8.77
2022-11-17T16:44:02.219Z,8.27
2022-11-17T16:46:31.416Z,9.05
2022-11-17T16:49:04.020Z,9.18
2022-11-17T16:51:30.944Z,9.80
2022-11-17T16:54:00.992Z,10.02
2022-11-17T16:56:28.497Z,9.52
2022-11-17T16:58:55.635Z,10.15
2022-11-17T17:01:25.090Z,9.55
2022-11-17T17:03:56.906Z,11.45
2022-11-17T17:06:24.253Z,10.52
2022-11-17T17:09:12.292Z,11.52
2022-11-17T17:11:39.877Z,10.82
2022-11-17T17:14:09.022Z,14.82
2022-11-17T17:16:37.966Z,10.68
2022-11-17T17:19:06.897Z,11.50
2022-11-17T17:21:34.428Z,9.98
2022-11-17T17:24:01.776Z,11.27
2022-11-17T17:26:31.134Z,12.38
2022-11-17T17:29:00.273Z,12.00
2022-11-17T17:31:34.867Z,17.02
2022-11-17T17:34:02.093Z,16.13
2022-11-17T17:36:29.282Z,13.68
2022-11-17T17:38:58.891Z,11.77
2022-11-17T17:41:29.196Z,13.25
2022-11-17T17:43:58.840Z,11.52
2022-11-17T17:46:26.788Z,11.88
2022-11-17T17:48:53.585Z,11.00
2022-11-17T17:51:23.858Z,11.75
2022-11-17T17:53:51.479Z,11.30
2022-11-17T17:56:20.809Z,10.93
2022-11-17T17:58:50.469Z,10.57
2022-11-17T18:01:25.305Z,11.18
2022-11-17T18:04:01.136Z,10.93
2022-11-17T18:06:28.615Z,17.65
2022-11-17T18:08:56.384Z,10.95
2022-11-17T18:11:23.375Z,12.00
2022-11-17T18:13:52.092Z,10.73
2022-11-17T18:16:27.797Z,11.27
2022-11-17T18:19:02.999Z,10.50
2022-11-17T18:21:30.882Z,10.68
2022-11-17T18:23:59.096Z,10.00
2022-11-17T18:26:29.284Z,10.60
2022-11-17T18:29:05.078Z,10.20
2022-11-17T18:31:33.785Z,12.30
2022-11-17T18:34:06.666Z,11.43
2022-11-17T18:36:34.872Z,11.10
2022-11-17T18:39:02.054Z,14.63
2022-11-17T18:41:30.926Z,11.23
2022-11-17T18:43:58.681Z,10.75
2022-11-17T18:46:27.644Z,14.02
2022-11-17T18:48:55.883Z,12.52
2022-11-17T18:51:25.377Z,13.30
2022-11-17T18:53:54.382Z,13.07
2022-11-17T18:56:23.781Z,13.40
2022-11-17T18:58:51.284Z,12.57
2022-11-17T19:01:23.530Z,12.48
2022-11-17T19:03:55.391Z,14.50
2022-11-17T19:06:24.573Z,12.15
2022-11-17T19:08:52.172Z,12.07
2022-11-17T19:11:20.749Z,11.40
2022-11-17T19:13:47.896Z,11.73
2022-11-17T19:16:20.190Z,12.18
2022-11-17T19:18:48.774Z,13.23
2022-11-17T19:21:21.432Z,15.30
2022-11-17T19:23:51.866Z,12.05
2022-11-17T19:26:31.002Z,13.10
2022-11-17T19:29:00.793Z,11.50
2022-11-17T19:31:28.293Z,12.07
2022-11-17T19:33:56.227Z,10.63
2022-11-17T19:36:29.598Z,11.30
2022-11-17T19:38:58.432Z,13.63
2022-11-17T19:41:27.808Z,11.90
2022-11-17T19:43:56.006Z,11.18
2022-11-17T19:46:24.281Z,10.77
2022-11-17T19:48:51.300Z,12.20
2022-11-17T19:51:20.615Z,11.75
2022-11-17T19:53:49.878Z,11.32
2022-11-17T19:56:17.262Z,12.07
2022-11-17T19:58:44.532Z,13.27
2022-11-17T20:01:20.235Z,12.23
2022-11-17T20:03:48.027Z,15.15
2022-11-17T20:06:17.154Z,14.02
2022-11-17T20:08:44.663Z,12.13
2022-11-17T20:11:17.144Z,12.25
2022-11-17T20:13:44.528Z,11.63
2022-11-17T20:16:17.513Z,11.77
2022-11-17T20:18:48.314Z,10.85
2022-11-17T20:21:15.152Z,10.05
2022-11-17T20:23:43.495Z,11.30
2022-11-17T20:26:20.024Z,11.52
2022-11-17T20:28:48.251Z,11.55
2022-11-17T20:31:24.287Z,11.18
2022-11-17T20:33:52.054Z,11.63
2022-11-17T20:36:20.649Z,10.45
2022-11-17T20:38:58.680Z,10.63
2022-11-17T20:41:25.505Z,10.85
2022-11-17T20:43:54.564Z,11.00
2022-11-17T20:46:22.502Z,12.68
2022-11-17T20:48:50.160Z,11.70
2022-11-17T20:51:19.409Z,11.32
2022-11-17T20:53:46.258Z,10.90
2022-11-17T20:56:16.195Z,12.70
2022-11-17T20:58:43.612Z,11.32
2022-11-17T21:01:19.221Z,12.13
2022-11-17T21:03:46.897Z,12.48
2022-11-17T21:06:16.477Z,12.25
2022-11-17T21:08:44.474Z,11.18
2022-11-17T21:11:33.899Z,11.38
2022-11-17T21:14:00.782Z,11.52
2022-11-17T21:16:27.958Z,11.27
2022-11-17T21:18:54.872Z,11.90
2022-11-17T21:21:21.714Z,11.13
2022-11-17T21:23:52.061Z,11.70
2022-11-17T21:26:18.849Z,11.80
2022-11-17T21:28:46.735Z,12.05
2022-11-17T21:31:19.536Z,13.60
2022-11-17T21:33:46.824Z,12.05
2022-11-17T21:36:16.048Z,13.50
2022-11-17T21:38:43.985Z,13.68
2022-11-17T21:41:12.316Z,11.63
2022-11-17T21:43:40.868Z,12.02
2022-11-17T21:46:16.836Z,11.27
2022-11-17T21:48:44.788Z,11.23
2022-11-17T21:51:17.899Z,11.20
2022-11-17T21:53:45.585Z,11.65
2022-11-17T21:56:12.662Z,10.52
2022-11-17T21:58:39.773Z,11.45
2022-11-17T22:01:14.863Z,12.23
2022-11-17T22:03:42.614Z,12.40
2022-11-17T22:06:13.975Z,12.13
2022-11-17T22:08:42.810Z,12.90
2022-11-17T22:11:12.915Z,12.82
2022-11-17T22:13:40.570Z,13.90
2022-11-17T22:16:13.488Z,13.38
2022-11-17T22:18:41.274Z,14.38
2022-11-17T22:21:09.265Z,13.63
2022-11-17T22:23:36.388Z,14.98
2022-11-17T22:26:06.476Z,15.52
2022-11-17T22:28:33.493Z,14.93
2022-11-17T22:31:09.077Z,14.70
2022-11-17T22:33:39.968Z,13.82
2022-11-17T22:36:07.758Z,14.40
2022-11-17T22:38:34.645Z,14.75
2022-11-17T22:41:07.103Z,14.75
2022-11-17T22:43:34.118Z,14.35
2022-11-17T22:46:03.188Z,14.60
2022-11-17T22:48:30.441Z,15.15
2022-11-17T22:51:00.943Z,14.30
2022-11-17T22:53:28.389Z,15.45
2022-11-17T22:56:00.459Z,15.20
2022-11-17T22:58:27.324Z,15.48
2022-11-17T23:00:54.149Z,15.55
2022-11-17T23:03:21.086Z,16.02
2022-11-17T23:05:47.962Z,16.13
2022-11-17T23:08:14.929Z,15.55
2022-11-17T23:10:41.977Z,16.92
2022-11-17T23:13:08.830Z,16.77
2022-11-17T23:15:38.756Z,17.88
2022-11-17T23:18:05.598Z,17.30
2022-11-17T23:20:33.121Z,17.77
2022-11-17T23:22:59.925Z,19.15
2022-11-17T23:25:26.744Z,19.17
2022-11-17T23:27:53.640Z,17.38
2022-11-17T23:30:20.550Z,19.67
2022-11-17T23:32:47.374Z,18.58
2022-11-17T23:35:14.246Z,20.00
2022-11-17T23:37:41.033Z,20.45
2022-11-17T23:40:08.606Z,20.40
2022-11-17T23:42:40.086Z,20.73
2022-11-17T23:45:10.652Z,22.13
2022-11-17T23:47:37.607Z,22.98
2022-11-17T23:50:04.972Z,22.95
2022-11-17T23:52:32.082Z,22.58
2022-11-17T23:54:58.897Z,21.42
2022-11-17T23:57:25.767Z,22.83
2022-11-17T23:59:52.616Z,23.88
